createdAt,value
2022-08-03T00:02:23.272Z,2.20
2022-08-03T00:07:25.085Z,2.28
2022-08-03T00:12:26.824Z,2.30
2022-08-03T00:17:28.528Z,2.10
2022-08-03T00:22:31.248Z,2.10
2022-08-03T00:27:39.130Z,2.10
2022-08-03T00:32:45.051Z,2.20
2022-08-03T00:37:47.469Z,2.15
2022-08-03T00:43:00.416Z,2.22
2022-08-03T00:48:04.156Z,2.13
2022-08-03T00:53:10.196Z,2.00
2022-08-03T00:58:12.367Z,2.40
2022-08-03T01:03:14.079Z,2.28
2022-08-03T01:08:27.366Z,2.30
2022-08-03T01:14:03.626Z,2.30
2022-08-03T01:19:27.739Z,2.38
2022-08-03T01:24:45.886Z,2.22
2022-08-03T01:30:02.469Z,2.25
2022-08-03T01:35:09.634Z,2.50
2022-08-03T01:40:13.543Z,2.30
2022-08-03T01:45:20.048Z,2.50
2022-08-03T01:50:26.000Z,2.20
2022-08-03T01:55:32.138Z,2.33
2022-08-03T02:00:37.502Z,2.33
2022-08-03T02:05:45.345Z,2.40
2022-08-03T02:10:48.878Z,2.35
2022-08-03T02:15:52.953Z,2.38
2022-08-03T02:20:55.888Z,2.30
2022-08-03T02:26:01.910Z,2.47
2022-08-03T02:31:08.945Z,2.42
2022-08-03T02:36:14.429Z,2.40
2022-08-03T02:41:21.262Z,2.40
2022-08-03T02:46:28.933Z,2.50
2022-08-03T02:51:33.627Z,2.50
2022-08-03T02:56:37.319Z,2.67
2022-08-03T03:01:40.132Z,2.22
2022-08-03T03:06:43.104Z,2.40
2022-08-03T03:11:50.906Z,2.47
2022-08-03T03:16:57.987Z,2.70
2022-08-03T03:22:04.533Z,2.47
2022-08-03T03:27:06.547Z,2.58
2022-08-03T03:32:09.237Z,2.72
2022-08-03T03:37:11.263Z,2.78
2022-08-03T03:42:13.280Z,2.53
2022-08-03T03:47:15.256Z,2.70
2022-08-03T03:52:18.378Z,2.60
2022-08-03T03:57:20.141Z,2.60
2022-08-03T04:02:22.032Z,3.35
2022-08-03T04:07:45.323Z,2.70
2022-08-03T04:12:50.637Z,2.70
2022-08-03T04:17:55.648Z,2.70
2022-08-03T04:23:00.852Z,2.72
2022-08-03T04:28:29.701Z,2.78
2022-08-03T04:33:29.655Z,3.10
2022-08-03T04:38:36.734Z,2.72
2022-08-03T04:43:40.920Z,2.60
2022-08-03T04:48:44.766Z,2.60
2022-08-03T04:53:46.825Z,2.30
2022-08-03T04:58:48.661Z,2.40
2022-08-03T05:03:50.673Z,2.40
2022-08-03T05:08:52.416Z,2.30
2022-08-03T05:13:54.226Z,2.10
2022-08-03T05:18:55.971Z,1.90
2022-08-03T05:23:57.677Z,2.25
2022-08-03T05:28:59.393Z,2.00
2022-08-03T05:34:01.359Z,2.17
2022-08-03T05:39:03.290Z,2.15
2022-08-03T05:44:05.516Z,2.40
2022-08-03T05:49:07.262Z,2.22
2022-08-03T05:54:09.157Z,2.20
2022-08-03T05:59:35.748Z,2.55
2022-08-03T06:04:32.693Z,2.40
2022-08-03T06:10:33.733Z,2.60
2022-08-03T06:14:56.775Z,2.70
2022-08-03T06:19:58.586Z,2.90
2022-08-03T06:25:04.102Z,3.30
2022-08-03T06:30:08.859Z,3.50
2022-08-03T06:35:12.553Z,3.40
2022-08-03T06:40:16.666Z,3.13
2022-08-03T06:45:26.318Z,3.13
2022-08-03T06:50:34.914Z,2.90
2022-08-03T06:55:42.317Z,3.08
2022-08-03T07:00:44.262Z,2.80
2022-08-03T07:05:47.326Z,3.00
2022-08-03T07:10:49.068Z,2.67
2022-08-03T07:15:55.430Z,2.85
2022-08-03T07:20:58.886Z,2.35
2022-08-03T07:26:00.625Z,2.60
2022-08-03T07:31:02.404Z,2.15
2022-08-03T07:36:04.602Z,2.55
2022-08-03T07:41:06.357Z,2.30
2022-08-03T07:46:08.064Z,2.20
2022-08-03T07:51:09.821Z,2.40
2022-08-03T07:56:11.609Z,2.40
2022-08-03T08:01:15.004Z,2.53
2022-08-03T08:06:18.057Z,2.08
2022-08-03T08:11:22.320Z,2.30
2022-08-03T08:16:24.065Z,2.92
2022-08-03T08:21:26.038Z,2.13
2022-08-03T08:26:47.912Z,2.40
2022-08-03T08:31:50.494Z,2.10
2022-08-03T08:36:53.217Z,2.08
2022-08-03T08:41:56.155Z,1.88
2022-08-03T08:47:01.317Z,2.13
2022-08-03T08:52:25.496Z,2.10
2022-08-03T08:57:42.907Z,1.92
2022-08-03T09:02:47.014Z,1.90
2022-08-03T09:07:49.680Z,2.00
2022-08-03T09:12:53.255Z,1.90
2022-08-03T09:18:03.838Z,1.90
2022-08-03T09:24:00.578Z,1.70
2022-08-03T09:29:00.435Z,1.90
2022-08-03T09:34:06.230Z,1.60
2022-08-03T09:39:11.506Z,1.70
2022-08-03T09:44:24.412Z,1.80
2022-08-03T09:49:30.925Z,1.90
2022-08-03T09:54:35.752Z,1.60
2022-08-03T09:59:41.081Z,1.73
2022-08-03T10:04:52.740Z,1.60
2022-08-03T10:10:31.714Z,1.52
2022-08-03T10:16:23.485Z,1.52
2022-08-03T10:20:53.140Z,1.73
2022-08-03T10:26:01.866Z,1.58
2022-08-03T10:31:07.890Z,1.67
2022-08-03T10:36:12.712Z,1.33
2022-08-03T10:41:17.734Z,1.60
2022-08-03T10:46:21.946Z,1.90
2022-08-03T10:51:30.750Z,1.95
2022-08-03T10:56:54.452Z,1.90
2022-08-03T11:01:59.881Z,1.70
2022-08-03T11:07:22.947Z,1.77
2022-08-03T11:12:33.045Z,1.77
2022-08-03T11:17:46.942Z,1.90
2022-08-03T11:23:03.019Z,1.58
2022-08-03T11:28:29.075Z,1.50
2022-08-03T11:33:38.596Z,1.80
2022-08-03T11:39:20.925Z,1.80
2022-08-03T11:44:41.897Z,1.50
2022-08-03T11:49:51.308Z,1.80
2022-08-03T11:55:05.874Z,1.70
2022-08-03T12:00:30.645Z,1.60
2022-08-03T12:05:40.656Z,1.80
2022-08-03T12:10:48.894Z,1.65
2022-08-03T12:15:56.327Z,1.90
2022-08-03T12:21:06.799Z,1.90
2022-08-03T12:26:10.786Z,1.80
2022-08-03T12:31:26.702Z,1.60
2022-08-03T12:36:30.561Z,1.75
2022-08-03T12:41:37.690Z,1.33
2022-08-03T12:46:47.445Z,2.00
2022-08-03T12:52:02.673Z,2.08
2022-08-03T12:57:15.991Z,1.80
2022-08-03T13:02:23.454Z,1.63
2022-08-03T13:07:25.369Z,1.50
2022-08-03T13:12:29.169Z,1.67
2022-08-03T13:17:32.995Z,1.40
2022-08-03T13:22:37.033Z,1.40
2022-08-03T13:28:04.739Z,1.30
2022-08-03T13:33:10.751Z,1.40
2022-08-03T13:38:13.014Z,1.52
2022-08-03T13:43:17.451Z,1.30
2022-08-03T13:48:36.881Z,2.08
2022-08-03T13:53:39.275Z,1.33
2022-08-03T13:58:51.392Z,1.23
2022-08-03T14:03:56.653Z,1.30
2022-08-03T14:09:05.010Z,1.50
2022-08-03T14:14:06.801Z,1.50
2022-08-03T14:19:30.386Z,1.30
2022-08-03T14:24:32.494Z,1.40
2022-08-03T14:29:34.188Z,1.40
2022-08-03T14:34:35.941Z,1.48
2022-08-03T14:45:04.670Z,1.65
2022-08-03T14:50:38.784Z,1.40
2022-08-03T14:55:38.944Z,1.30
2022-08-03T15:00:53.980Z,1.50
2022-08-03T15:05:57.187Z,1.48
2022-08-03T15:10:58.998Z,1.40
2022-08-03T15:16:00.721Z,1.50
2022-08-03T15:21:02.522Z,1.50
2022-08-03T15:26:33.903Z,1.45
2022-08-03T15:31:26.062Z,1.40
2022-08-03T15:36:27.768Z,1.50
2022-08-03T15:41:29.696Z,1.40
2022-08-03T15:46:31.798Z,1.45
2022-08-03T15:51:33.655Z,1.42
2022-08-03T15:56:35.692Z,1.60
2022-08-03T16:01:38.655Z,1.50
2022-08-03T16:06:40.708Z,1.50
2022-08-03T16:11:42.438Z,1.40
2022-08-03T16:16:45.715Z,1.55
2022-08-03T16:21:49.986Z,1.48
2022-08-03T16:26:51.945Z,1.35
2022-08-03T16:31:55.472Z,1.60
2022-08-03T16:36:57.240Z,1.45
2022-08-03T16:42:01.571Z,1.58
2022-08-03T16:47:03.866Z,1.30
2022-08-03T16:52:07.169Z,2.35
2022-08-03T16:57:09.010Z,1.70
2022-08-03T17:02:21.379Z,1.60
2022-08-03T17:07:29.499Z,1.58
2022-08-03T17:12:31.446Z,1.48
2022-08-03T17:17:43.010Z,1.65
2022-08-03T17:23:54.250Z,1.50
2022-08-03T17:29:13.249Z,1.60
2022-08-03T17:34:15.297Z,1.52
2022-08-03T17:39:30.941Z,1.60
2022-08-03T17:44:46.999Z,1.40
2022-08-03T17:49:49.547Z,1.40
2022-08-03T17:55:56.942Z,1.60
2022-08-03T18:01:01.304Z,1.50
2022-08-03T18:06:11.106Z,1.45
2022-08-03T18:11:21.599Z,1.55
2022-08-03T18:16:30.803Z,1.58
2022-08-03T18:26:55.935Z,1.38
2022-08-03T18:32:03.016Z,1.67
2022-08-03T18:37:07.763Z,1.38
2022-08-03T18:42:19.384Z,1.70
2022-08-03T18:47:51.021Z,1.80
2022-08-03T18:53:15.691Z,1.50
2022-08-03T18:59:07.814Z,1.63
2022-08-03T19:04:29.776Z,1.50
2022-08-03T19:09:38.156Z,1.65
2022-08-03T19:14:47.414Z,1.40
2022-08-03T19:19:51.318Z,1.60
2022-08-03T19:24:55.420Z,1.60
2022-08-03T19:30:02.905Z,1.70
2022-08-03T19:35:13.304Z,1.65
2022-08-03T19:40:20.655Z,1.67
2022-08-03T19:46:05.370Z,1.80
2022-08-03T19:50:59.097Z,1.80
2022-08-03T19:56:05.934Z,1.73
2022-08-03T20:01:21.213Z,1.85
2022-08-03T20:06:23.755Z,2.17
2022-08-03T20:11:28.533Z,1.95
2022-08-03T20:16:30.783Z,2.00
2022-08-03T20:21:35.189Z,1.90
2022-08-03T20:26:42.384Z,1.85
2022-08-03T20:31:45.026Z,1.80
2022-08-03T20:36:46.839Z,2.05
2022-08-03T20:41:48.583Z,1.70
2022-08-03T20:47:00.272Z,1.80
2022-08-03T20:52:03.480Z,1.73
2022-08-03T20:57:09.385Z,1.63
2022-08-03T21:02:13.138Z,1.80
2022-08-03T21:07:24.443Z,1.80
2022-08-03T21:12:57.781Z,1.52
2022-08-03T21:13:16.856Z,1.70
2022-08-03T21:18:20.996Z,2.00
2022-08-03T21:23:34.890Z,1.90
2022-08-03T21:28:45.559Z,2.10
2022-08-03T21:33:49.153Z,2.05
2022-08-03T21:38:56.125Z,2.10
2022-08-03T21:44:00.735Z,2.25
2022-08-03T21:50:06.038Z,1.95
2022-08-03T21:54:41.074Z,1.90
2022-08-03T21:59:50.993Z,1.92
2022-08-03T22:04:56.956Z,2.00
2022-08-03T22:10:02.163Z,1.80
2022-08-03T22:15:07.437Z,2.05
2022-08-03T22:20:13.166Z,2.08
2022-08-03T22:25:16.419Z,2.05
2022-08-03T22:30:19.678Z,1.83
2022-08-03T22:35:24.374Z,1.80
2022-08-03T22:40:28.053Z,2.10
2022-08-03T22:46:09.615Z,1.95
2022-08-03T22:50:51.593Z,1.95
2022-08-03T22:55:53.321Z,1.90
2022-08-03T23:00:58.590Z,1.90
2022-08-03T23:06:03.682Z,2.08
2022-08-03T23:11:10.448Z,2.30
2022-08-03T23:16:13.770Z,2.47
2022-08-03T23:21:17.892Z,2.00
2022-08-03T23:26:41.079Z,2.00
2022-08-03T23:31:44.763Z,1.90
2022-08-03T23:36:49.108Z,2.22
2022-08-03T23:41:52.469Z,1.92
2022-08-03T23:46:54.637Z,2.25
2022-08-03T23:52:24.210Z,2.10
